createdAt,value
2022-12-22T00:00:55.351Z,989.34
2022-12-22T00:01:55.558Z,989.32
2022-12-22T00:02:55.483Z,989.34
2022-12-22T00:03:55.516Z,989.35
2022-12-22T00:04:55.403Z,989.34
2022-12-22T00:05:55.425Z,989.33
2022-12-22T00:06:55.426Z,989.35
2022-12-22T00:07:55.446Z,989.33
2022-12-22T00:08:57.892Z,989.27
2022-12-22T00:09:55.490Z,989.27
2022-12-22T00:10:55.489Z,989.26
2022-12-22T00:11:55.543Z,989.21
2022-12-22T00:12:55.518Z,989.25
2022-12-22T00:13:55.537Z,989.23
2022-12-22T00:14:55.848Z,989.25
2022-12-22T00:15:55.568Z,989.27
2022-12-22T00:16:55.694Z,989.31
2022-12-22T00:17:55.595Z,989.26
2022-12-22T00:18:55.604Z,989.26
2022-12-22T00:19:55.624Z,989.25
2022-12-22T00:20:55.641Z,989.27
2022-12-22T00:21:55.657Z,989.27
2022-12-22T00:22:55.670Z,989.24
2022-12-22T00:23:55.680Z,989.27
2022-12-22T00:24:55.700Z,989.23
2022-12-22T00:25:55.719Z,989.21
2022-12-22T00:26:55.843Z,989.18
2022-12-22T00:27:55.769Z,989.12
2022-12-22T00:28:55.763Z,989.14
2022-12-22T00:29:55.777Z,989.12
2022-12-22T00:30:55.834Z,989.05
2022-12-22T00:31:55.808Z,989.02
2022-12-22T00:32:55.822Z,989.03
2022-12-22T00:33:55.840Z,989.06
2022-12-22T00:34:55.852Z,989.06
2022-12-22T00:35:55.868Z,989
2022-12-22T00:36:55.883Z,989.01
2022-12-22T00:37:55.910Z,988.98
2022-12-22T00:38:55.911Z,988.97
2022-12-22T00:39:55.927Z,988.94
2022-12-22T00:40:55.946Z,988.93
2022-12-22T00:41:55.961Z,988.91
2022-12-22T00:42:55.975Z,988.94
2022-12-22T00:43:56.021Z,988.92
2022-12-22T00:44:56.005Z,988.88
2022-12-22T00:45:56.090Z,988.86
2022-12-22T00:46:56.033Z,988.87
2022-12-22T00:47:56.058Z,988.91
2022-12-22T00:48:56.084Z,988.83
2022-12-22T00:49:56.076Z,988.85
2022-12-22T00:50:56.091Z,988.83
2022-12-22T00:51:56.109Z,988.79
2022-12-22T00:52:56.126Z,988.81
2022-12-22T00:53:56.136Z,988.79
2022-12-22T00:54:56.154Z,988.79
2022-12-22T00:55:56.166Z,988.82
2022-12-22T00:56:56.186Z,988.8
2022-12-22T00:57:56.199Z,988.85
2022-12-22T00:58:56.232Z,988.85
2022-12-22T00:59:56.254Z,988.83
2022-12-22T01:00:56.313Z,988.78
2022-12-22T01:01:56.446Z,988.79
2022-12-22T01:02:56.421Z,988.79
2022-12-22T01:03:56.288Z,988.75
2022-12-22T01:04:56.306Z,988.76
2022-12-22T01:05:56.325Z,988.73
2022-12-22T01:06:56.341Z,988.76
2022-12-22T01:07:56.354Z,988.72
2022-12-22T01:08:56.369Z,988.71
2022-12-22T01:09:56.379Z,988.67
2022-12-22T01:10:56.397Z,988.66
2022-12-22T01:11:56.411Z,988.62
2022-12-22T01:12:56.435Z,988.59
2022-12-22T01:13:56.443Z,988.6
2022-12-22T01:14:56.862Z,988.59
2022-12-22T01:15:56.541Z,988.6
2022-12-22T01:16:56.487Z,988.6
2022-12-22T01:17:56.504Z,988.57
2022-12-22T01:18:56.525Z,988.5
2022-12-22T01:19:56.533Z,988.44
2022-12-22T01:20:56.551Z,988.43
2022-12-22T01:21:56.561Z,988.41
2022-12-22T01:22:56.579Z,988.32
2022-12-22T01:23:56.594Z,988.33
2022-12-22T01:24:56.607Z,988.3
2022-12-22T01:25:56.621Z,988.3
2022-12-22T01:26:56.643Z,988.33
2022-12-22T01:27:56.659Z,988.38
2022-12-22T01:28:56.670Z,988.35
2022-12-22T01:29:56.683Z,988.32
2022-12-22T01:30:56.754Z,988.31
2022-12-22T01:31:56.743Z,988.33
2022-12-22T01:32:56.730Z,988.3
2022-12-22T01:33:56.749Z,988.28
2022-12-22T01:34:56.761Z,988.25
2022-12-22T01:35:56.775Z,988.28
2022-12-22T01:36:56.791Z,988.26
2022-12-22T01:37:56.809Z,988.29
2022-12-22T01:38:56.821Z,988.25
2022-12-22T01:39:56.838Z,988.27
2022-12-22T01:40:56.854Z,988.29
2022-12-22T01:41:56.868Z,988.28
2022-12-22T01:42:56.878Z,988.26
2022-12-22T01:43:56.896Z,988.19
2022-12-22T01:44:56.912Z,988.22
2022-12-22T01:45:57.064Z,988.15
2022-12-22T01:46:56.942Z,988.15
2022-12-22T01:47:56.984Z,988.21
2022-12-22T01:48:56.975Z,988.21
2022-12-22T01:49:56.998Z,988.2
2022-12-22T01:50:57.002Z,988.18
2022-12-22T01:51:57.019Z,988.14
2022-12-22T01:52:57.031Z,988.12
2022-12-22T01:53:57.049Z,988.06
2022-12-22T01:54:57.064Z,988.1
2022-12-22T01:55:57.084Z,988.04
2022-12-22T01:56:57.100Z,988.03
2022-12-22T01:57:57.112Z,988.02
2022-12-22T01:58:57.123Z,988.02
2022-12-22T01:59:57.162Z,987.99
2022-12-22T02:00:57.151Z,987.94
2022-12-22T02:01:57.335Z,987.93
2022-12-22T02:02:57.336Z,987.95
2022-12-22T02:03:57.303Z,987.92
2022-12-22T02:04:57.214Z,987.84
2022-12-22T02:05:57.231Z,987.88
2022-12-22T02:07:00.158Z,987.85
2022-12-22T02:07:57.261Z,987.9
2022-12-22T02:08:57.275Z,987.88
2022-12-22T02:09:57.298Z,987.84
2022-12-22T02:10:57.314Z,987.89
2022-12-22T02:11:57.322Z,987.86
2022-12-22T02:12:57.335Z,987.82
2022-12-22T02:13:57.352Z,987.85
2022-12-22T02:14:57.818Z,987.81
2022-12-22T02:15:57.437Z,987.84
2022-12-22T02:16:57.397Z,987.85
2022-12-22T02:17:57.414Z,987.85
2022-12-22T02:18:57.428Z,987.82
2022-12-22T02:19:57.468Z,987.82
2022-12-22T02:20:57.455Z,987.76
2022-12-22T02:21:57.475Z,987.76
2022-12-22T02:22:57.487Z,987.75
2022-12-22T02:23:57.503Z,987.72
2022-12-22T02:24:57.525Z,987.67
2022-12-22T02:25:57.537Z,987.66
2022-12-22T02:26:57.552Z,987.63
2022-12-22T02:27:57.563Z,987.57
2022-12-22T02:28:57.578Z,987.56
2022-12-22T02:29:57.598Z,987.59
2022-12-22T02:30:57.639Z,987.58
2022-12-22T02:31:57.622Z,987.47
2022-12-22T02:32:59.842Z,987.53
2022-12-22T02:33:57.657Z,987.53
2022-12-22T02:34:57.681Z,987.48
2022-12-22T02:35:57.707Z,987.52
2022-12-22T02:36:57.705Z,987.5
2022-12-22T02:37:57.719Z,987.48
2022-12-22T02:38:57.739Z,987.48
2022-12-22T02:39:57.748Z,987.43
2022-12-22T02:40:57.764Z,987.44
2022-12-22T02:41:57.774Z,987.4
2022-12-22T02:42:57.794Z,987.4
2022-12-22T02:43:57.803Z,987.33
2022-12-22T02:44:57.822Z,987.35
2022-12-22T02:45:57.832Z,987.35
2022-12-22T02:46:57.902Z,987.31
2022-12-22T02:47:57.872Z,987.3
2022-12-22T02:48:57.884Z,987.34
2022-12-22T02:49:57.904Z,987.29
2022-12-22T02:50:57.913Z,987.27
2022-12-22T02:51:57.956Z,987.25
2022-12-22T02:52:57.958Z,987.25
2022-12-22T02:53:57.956Z,987.2
2022-12-22T02:54:57.978Z,987.14
2022-12-22T02:55:57.985Z,987.18
2022-12-22T02:56:57.999Z,987.21
2022-12-22T02:57:58.016Z,987.26
2022-12-22T02:58:58.034Z,987.24
2022-12-22T02:59:58.054Z,987.17
2022-12-22T03:00:58.067Z,987.12
2022-12-22T03:01:58.232Z,987.09
2022-12-22T03:02:58.281Z,987.06
2022-12-22T03:03:58.224Z,987.07
2022-12-22T03:04:58.122Z,987.05
2022-12-22T03:05:58.161Z,987.02
2022-12-22T03:06:58.160Z,987.02
2022-12-22T03:08:00.674Z,987.07
2022-12-22T03:08:58.185Z,987.05
2022-12-22T03:09:58.202Z,987.02
2022-12-22T03:10:58.213Z,986.99
2022-12-22T03:11:58.232Z,986.98
2022-12-22T03:12:58.246Z,986.98
2022-12-22T03:13:58.257Z,987.01
2022-12-22T03:14:58.632Z,986.99
2022-12-22T03:15:58.304Z,986.99
2022-12-22T03:16:58.306Z,987.01
2022-12-22T03:17:58.319Z,986.98
2022-12-22T03:18:58.337Z,986.98
2022-12-22T03:19:58.348Z,986.95
2022-12-22T03:20:58.365Z,986.91
2022-12-22T03:21:58.379Z,986.91
2022-12-22T03:22:58.394Z,986.87
2022-12-22T03:23:58.439Z,986.88
2022-12-22T03:24:58.427Z,986.8
2022-12-22T03:25:58.444Z,986.83
2022-12-22T03:26:58.453Z,986.73
2022-12-22T03:27:58.468Z,986.7
2022-12-22T03:28:58.484Z,986.7
2022-12-22T03:29:58.502Z,986.69
2022-12-22T03:30:58.552Z,986.72
2022-12-22T03:31:58.589Z,986.65
2022-12-22T03:32:58.542Z,986.64
2022-12-22T03:33:58.566Z,986.59
2022-12-22T03:34:58.575Z,986.59
2022-12-22T03:35:58.592Z,986.55
2022-12-22T03:36:58.601Z,986.59
2022-12-22T03:37:58.620Z,986.59
2022-12-22T03:38:58.633Z,986.61
2022-12-22T03:39:58.680Z,986.58
2022-12-22T03:40:58.664Z,986.53
2022-12-22T03:41:58.683Z,986.5
2022-12-22T03:42:58.694Z,986.48
2022-12-22T03:43:58.711Z,986.47
2022-12-22T03:44:58.726Z,986.46
2022-12-22T03:45:58.738Z,986.43
2022-12-22T03:46:58.842Z,986.42
2022-12-22T03:47:58.774Z,986.44
2022-12-22T03:48:58.781Z,986.45
2022-12-22T03:49:58.805Z,986.43
2022-12-22T03:50:58.814Z,986.41
2022-12-22T03:51:58.831Z,986.4
2022-12-22T03:52:58.846Z,986.42
2022-12-22T03:53:58.859Z,986.43
2022-12-22T03:54:58.881Z,986.41
2022-12-22T03:56:02.584Z,986.41
2022-12-22T03:56:58.913Z,986.38
2022-12-22T03:57:58.922Z,986.38
2022-12-22T03:58:58.941Z,986.36
2022-12-22T03:59:58.953Z,986.38
2022-12-22T04:00:59.040Z,986.37
2022-12-22T04:01:59.189Z,986.32
2022-12-22T04:02:59.092Z,986.31
2022-12-22T04:03:59.046Z,986.34
2022-12-22T04:04:59.058Z,986.32
2022-12-22T04:05:59.045Z,986.35
2022-12-22T04:06:59.062Z,986.29
2022-12-22T04:07:59.084Z,986.3
2022-12-22T04:08:59.092Z,986.26
2022-12-22T04:09:59.101Z,986.19
2022-12-22T04:10:59.119Z,986.22
2022-12-22T04:11:59.173Z,986.18
2022-12-22T04:12:59.151Z,986.15
2022-12-22T04:13:59.162Z,986.11
2022-12-22T04:14:59.480Z,986.09
2022-12-22T04:15:59.240Z,986.11
2022-12-22T04:16:59.396Z,986.06
2022-12-22T04:17:59.225Z,986.03
2022-12-22T04:18:59.241Z,986.01
2022-12-22T04:19:59.256Z,986.02
2022-12-22T04:20:59.271Z,985.98
2022-12-22T04:21:59.287Z,985.97
2022-12-22T04:22:59.300Z,985.93
2022-12-22T04:23:59.313Z,985.91
2022-12-22T04:24:59.336Z,985.9
2022-12-22T04:25:59.341Z,985.89
2022-12-22T04:26:59.360Z,985.89
2022-12-22T04:27:59.399Z,985.83
2022-12-22T04:28:59.449Z,985.84
2022-12-22T04:29:59.402Z,985.82
2022-12-22T04:30:59.417Z,985.81
2022-12-22T04:31:59.490Z,985.8
2022-12-22T04:32:59.457Z,985.78
2022-12-22T04:33:59.462Z,985.77
2022-12-22T04:34:59.480Z,985.8
2022-12-22T04:35:59.491Z,985.75
2022-12-22T04:37:07.250Z,985.75
2022-12-22T04:37:59.523Z,985.73
2022-12-22T04:38:59.534Z,985.75
2022-12-22T04:39:59.562Z,985.75
2022-12-22T04:40:59.571Z,985.76
2022-12-22T04:41:59.584Z,985.72
2022-12-22T04:42:59.601Z,985.71
2022-12-22T04:43:59.640Z,985.69
2022-12-22T04:44:59.632Z,985.64
2022-12-22T04:45:59.749Z,985.61
2022-12-22T04:46:59.660Z,985.64
2022-12-22T04:47:59.671Z,985.61
2022-12-22T04:49:00.567Z,985.61
2022-12-22T04:49:59.705Z,985.6
2022-12-22T04:50:59.722Z,985.63
2022-12-22T04:51:59.737Z,985.59
2022-12-22T04:52:59.753Z,985.62
2022-12-22T04:53:59.767Z,985.57
2022-12-22T04:54:59.783Z,985.54
2022-12-22T04:55:59.814Z,985.51
2022-12-22T04:56:59.809Z,985.5
2022-12-22T04:57:59.825Z,985.54
2022-12-22T04:58:59.841Z,985.48
2022-12-22T04:59:59.885Z,985.47
2022-12-22T05:00:59.922Z,985.47
2022-12-22T05:02:00.048Z,985.42
2022-12-22T05:03:00.091Z,985.42
2022-12-22T05:03:59.915Z,985.41
2022-12-22T05:04:59.926Z,985.44
2022-12-22T05:05:59.948Z,985.41
2022-12-22T05:06:59.957Z,985.43
2022-12-22T05:07:59.975Z,985.38
2022-12-22T05:08:59.988Z,985.39
2022-12-22T05:10:00.009Z,985.36
2022-12-22T05:11:00.021Z,985.34
2022-12-22T05:12:00.064Z,985.32
2022-12-22T05:13:00.060Z,985.35
2022-12-22T05:14:05.307Z,985.34
2022-12-22T05:15:00.512Z,985.35
2022-12-22T05:16:00.137Z,985.34
2022-12-22T05:17:00.215Z,985.31
2022-12-22T05:18:00.145Z,985.25
2022-12-22T05:19:00.139Z,985.29
2022-12-22T05:20:00.198Z,985.26
2022-12-22T05:21:00.169Z,985.23
2022-12-22T05:22:00.186Z,985.25
2022-12-22T05:23:00.205Z,985.25
2022-12-22T05:24:00.217Z,985.23
2022-12-22T05:25:00.236Z,985.22
2022-12-22T05:26:00.249Z,985.2
2022-12-22T05:27:00.264Z,985.21
2022-12-22T05:28:00.283Z,985.19
2022-12-22T05:29:00.298Z,985.22
2022-12-22T05:30:00.326Z,985.23
2022-12-22T05:31:00.349Z,985.22
2022-12-22T05:32:00.367Z,985.22
2022-12-22T05:33:00.360Z,985.18
2022-12-22T05:34:00.377Z,985.15
2022-12-22T05:35:00.392Z,985.12
2022-12-22T05:36:00.398Z,985.08
2022-12-22T05:37:00.413Z,985.1
2022-12-22T05:38:00.456Z,985.1
2022-12-22T05:39:00.444Z,985.09
2022-12-22T05:40:00.455Z,985.07
2022-12-22T05:41:04.199Z,985.07
2022-12-22T05:42:00.507Z,985.11
2022-12-22T05:43:00.507Z,985.05
2022-12-22T05:44:00.526Z,985.07
2022-12-22T05:45:00.544Z,985.05
2022-12-22T05:46:00.599Z,985.06
2022-12-22T05:47:00.563Z,985.09
2022-12-22T05:48:00.610Z,985.03
2022-12-22T05:49:00.594Z,985.02
2022-12-22T05:50:00.612Z,985.04
2022-12-22T05:51:00.621Z,985.05
2022-12-22T05:52:00.638Z,985.05
2022-12-22T05:53:00.718Z,985.05
2022-12-22T05:54:00.670Z,985.06
2022-12-22T05:55:00.690Z,985.02
2022-12-22T05:56:00.701Z,985.04
2022-12-22T05:57:00.716Z,985
2022-12-22T05:58:00.778Z,985.02
2022-12-22T05:59:00.746Z,985.01
2022-12-22T06:00:00.766Z,985
2022-12-22T06:01:00.791Z,985
2022-12-22T06:02:00.931Z,984.99
2022-12-22T06:03:00.903Z,984.97
2022-12-22T06:04:01.125Z,984.97
2022-12-22T06:05:00.838Z,984.98
2022-12-22T06:06:00.852Z,984.97
2022-12-22T06:07:00.866Z,984.99
2022-12-22T06:08:00.884Z,984.98
2022-12-22T06:09:00.899Z,984.94
2022-12-22T06:10:03.919Z,984.97
2022-12-22T06:11:00.928Z,984.92
2022-12-22T06:12:00.946Z,984.9
2022-12-22T06:13:00.958Z,984.91
2022-12-22T06:14:00.979Z,984.92
2022-12-22T06:15:01.185Z,984.89
2022-12-22T06:16:01.056Z,984.89
2022-12-22T06:17:01.019Z,984.87
2022-12-22T06:18:01.032Z,984.86
2022-12-22T06:19:01.045Z,984.88
2022-12-22T06:20:01.098Z,984.84
2022-12-22T06:21:01.082Z,984.82
2022-12-22T06:22:01.094Z,984.81
2022-12-22T06:23:01.151Z,984.82
2022-12-22T06:24:01.122Z,984.76
2022-12-22T06:25:01.137Z,984.78
2022-12-22T06:26:01.154Z,984.82
2022-12-22T06:27:01.181Z,984.79
2022-12-22T06:28:01.193Z,984.73
2022-12-22T06:29:01.202Z,984.77
2022-12-22T06:30:01.212Z,984.71
2022-12-22T06:31:01.280Z,984.74
2022-12-22T06:32:01.250Z,984.72
2022-12-22T06:33:01.315Z,984.74
2022-12-22T06:34:01.275Z,984.72
2022-12-22T06:35:01.291Z,984.76
2022-12-22T06:36:01.334Z,984.77
2022-12-22T06:37:01.315Z,984.72
2022-12-22T06:38:01.339Z,984.78
2022-12-22T06:39:01.351Z,984.75
2022-12-22T06:40:01.365Z,984.72
2022-12-22T06:41:01.379Z,984.74
2022-12-22T06:42:01.395Z,984.71
2022-12-22T06:43:07.979Z,984.72
2022-12-22T06:44:01.425Z,984.71
2022-12-22T06:45:01.445Z,984.74
2022-12-22T06:46:01.565Z,984.73
2022-12-22T06:47:01.525Z,984.74
2022-12-22T06:48:01.488Z,984.75
2022-12-22T06:49:01.498Z,984.71
2022-12-22T06:50:01.535Z,984.73
2022-12-22T06:51:01.542Z,984.7
2022-12-22T06:52:01.573Z,984.73
2022-12-22T06:53:01.561Z,984.71
2022-12-22T06:54:01.576Z,984.71
2022-12-22T06:55:01.595Z,984.75
2022-12-22T06:56:01.604Z,984.71
2022-12-22T06:57:01.617Z,984.73
2022-12-22T06:58:01.641Z,984.74
2022-12-22T06:59:01.651Z,984.77
2022-12-22T07:00:01.769Z,984.77
2022-12-22T07:01:01.685Z,984.76
2022-12-22T07:02:01.779Z,984.79
2022-12-22T07:03:01.940Z,984.78
2022-12-22T07:04:01.796Z,984.8
2022-12-22T07:05:01.748Z,984.77
2022-12-22T07:06:01.757Z,984.77
2022-12-22T07:07:01.771Z,984.79
2022-12-22T07:08:07.978Z,984.79
2022-12-22T07:09:01.799Z,984.83
2022-12-22T07:10:01.822Z,984.8
2022-12-22T07:11:01.829Z,984.79
2022-12-22T07:12:01.850Z,984.83
2022-12-22T07:13:01.860Z,984.77
2022-12-22T07:14:01.885Z,984.73
2022-12-22T07:15:02.339Z,984.73
2022-12-22T07:16:02.380Z,984.73
2022-12-22T07:17:01.924Z,984.77
2022-12-22T07:18:01.945Z,984.75
2022-12-22T07:19:01.963Z,984.8
2022-12-22T07:20:01.981Z,984.76
2022-12-22T07:21:01.992Z,984.81
2022-12-22T07:22:02.003Z,984.79
2022-12-22T07:23:02.014Z,984.8
2022-12-22T07:24:02.068Z,984.8
2022-12-22T07:25:02.040Z,984.82
2022-12-22T07:26:02.069Z,984.82
2022-12-22T07:27:02.072Z,984.82
2022-12-22T07:28:02.089Z,984.82
2022-12-22T07:29:02.101Z,984.84
2022-12-22T07:30:02.118Z,984.81
2022-12-22T07:31:02.185Z,984.81
2022-12-22T07:32:02.152Z,984.78
2022-12-22T07:33:02.182Z,984.79
2022-12-22T07:34:02.177Z,984.82
2022-12-22T07:35:05.439Z,984.79
2022-12-22T07:36:02.208Z,984.79
2022-12-22T07:37:02.226Z,984.78
2022-12-22T07:38:02.243Z,984.79
2022-12-22T07:39:02.255Z,984.78
2022-12-22T07:40:02.317Z,984.77
2022-12-22T07:41:05.106Z,984.77
2022-12-22T07:42:02.307Z,984.78
2022-12-22T07:43:02.318Z,984.79
2022-12-22T07:44:02.331Z,984.77
2022-12-22T07:45:02.379Z,984.79
2022-12-22T07:46:02.400Z,984.79
2022-12-22T07:47:02.476Z,984.82
2022-12-22T07:48:02.392Z,984.84
2022-12-22T07:49:02.407Z,984.84
2022-12-22T07:50:02.420Z,984.87
2022-12-22T07:51:02.440Z,984.85
2022-12-22T07:52:02.456Z,984.88
2022-12-22T07:53:02.465Z,984.84
2022-12-22T07:54:02.480Z,984.86
2022-12-22T07:55:02.498Z,984.86
2022-12-22T07:56:02.541Z,984.92
2022-12-22T07:57:02.529Z,984.9
2022-12-22T07:58:02.545Z,984.95
2022-12-22T07:59:02.558Z,984.95
2022-12-22T08:00:02.574Z,984.98
2022-12-22T08:01:02.586Z,984.97
2022-12-22T08:02:02.797Z,984.96
2022-12-22T08:03:02.842Z,984.99
2022-12-22T08:04:02.645Z,985.01
2022-12-22T08:05:02.721Z,985.01
2022-12-22T08:06:02.670Z,985.01
2022-12-22T08:07:02.684Z,985.03
2022-12-22T08:08:02.696Z,985.04
2022-12-22T08:09:02.710Z,985.01
2022-12-22T08:10:02.991Z,985.03
2022-12-22T08:11:02.739Z,985.02
2022-12-22T08:12:02.782Z,985.05
2022-12-22T08:13:02.981Z,985.05
2022-12-22T08:14:02.976Z,985.06
2022-12-22T08:15:03.201Z,985.06
2022-12-22T08:16:02.958Z,985.07
2022-12-22T08:17:02.834Z,985.09
2022-12-22T08:18:02.942Z,985.11
2022-12-22T08:19:02.862Z,985.09
2022-12-22T08:20:02.977Z,985.1
2022-12-22T08:21:02.946Z,985.19
2022-12-22T08:22:03.010Z,985.11
2022-12-22T08:23:03.022Z,985.15
2022-12-22T08:24:02.934Z,985.15
2022-12-22T08:25:02.952Z,985.18
2022-12-22T08:26:02.959Z,985.21
2022-12-22T08:27:02.976Z,985.16
2022-12-22T08:28:03.024Z,985.17
2022-12-22T08:29:03.001Z,985.19
2022-12-22T08:30:03.020Z,985.2
2022-12-22T08:31:03.039Z,985.19
2022-12-22T08:32:03.080Z,985.23
2022-12-22T08:33:03.069Z,985.19
2022-12-22T08:34:03.088Z,985.28
2022-12-22T08:35:03.099Z,985.25
2022-12-22T08:36:07.911Z,985.28
2022-12-22T08:37:03.130Z,985.29
2022-12-22T08:38:03.147Z,985.31
2022-12-22T08:39:03.153Z,985.32
2022-12-22T08:40:03.199Z,985.29
2022-12-22T08:41:03.191Z,985.31
2022-12-22T08:42:03.203Z,985.31
2022-12-22T08:43:03.219Z,985.32
2022-12-22T08:44:03.266Z,985.35
2022-12-22T08:45:03.247Z,985.33
2022-12-22T08:46:03.258Z,985.39
2022-12-22T08:47:03.386Z,985.37
2022-12-22T08:48:03.292Z,985.4
2022-12-22T08:49:03.300Z,985.42
2022-12-22T08:50:03.324Z,985.42
2022-12-22T08:51:03.333Z,985.48
2022-12-22T08:52:03.352Z,985.46
2022-12-22T08:53:03.369Z,985.47
2022-12-22T08:54:07.651Z,985.5
2022-12-22T08:55:07.678Z,985.51
2022-12-22T08:56:07.679Z,985.54
2022-12-22T08:57:07.693Z,985.52
2022-12-22T08:58:07.711Z,985.56
2022-12-22T08:59:07.792Z,985.56
2022-12-22T09:00:07.742Z,985.6
2022-12-22T09:01:07.800Z,985.59
2022-12-22T09:02:07.892Z,985.56
2022-12-22T09:03:07.904Z,985.58
2022-12-22T09:04:07.822Z,985.56
2022-12-22T09:05:07.812Z,985.6
2022-12-22T09:06:07.837Z,985.56
2022-12-22T09:07:07.864Z,985.52
2022-12-22T09:08:07.862Z,985.57
2022-12-22T09:09:07.882Z,985.57
2022-12-22T09:10:07.889Z,985.58
2022-12-22T09:11:07.908Z,985.59
2022-12-22T09:12:07.928Z,985.6
2022-12-22T09:13:07.940Z,985.63
2022-12-22T09:14:07.967Z,985.69
2022-12-22T09:15:08.503Z,985.67
2022-12-22T09:16:08.126Z,985.68
2022-12-22T09:17:07.999Z,985.69
2022-12-22T09:18:08.009Z,985.72
2022-12-22T09:19:08.029Z,985.71
2022-12-22T09:20:08.052Z,985.7
2022-12-22T09:21:08.063Z,985.74
2022-12-22T09:22:08.077Z,985.74
2022-12-22T09:23:08.098Z,985.76
2022-12-22T09:24:08.101Z,985.75
2022-12-22T09:25:08.122Z,985.73
2022-12-22T09:26:08.135Z,985.7
2022-12-22T09:27:08.152Z,985.72
2022-12-22T09:28:08.172Z,985.73
2022-12-22T09:29:08.179Z,985.77
2022-12-22T09:30:08.192Z,985.83
2022-12-22T09:31:08.242Z,985.84
2022-12-22T09:32:08.260Z,985.87
2022-12-22T09:33:08.241Z,985.92
2022-12-22T09:34:11.953Z,985.98
2022-12-22T09:35:08.280Z,985.98
2022-12-22T09:36:08.279Z,985.99
2022-12-22T09:37:08.310Z,986.01
2022-12-22T09:38:08.307Z,986.02
2022-12-22T09:39:08.338Z,986.05
2022-12-22T09:40:08.348Z,986.07
2022-12-22T09:41:08.364Z,986.06
2022-12-22T09:42:08.374Z,986.12
2022-12-22T09:43:08.392Z,986.12
2022-12-22T09:44:08.404Z,986.16
2022-12-22T09:45:11.134Z,986.19
2022-12-22T09:46:08.494Z,986.24
2022-12-22T09:47:08.479Z,986.25
2022-12-22T09:48:08.470Z,986.28
2022-12-22T09:49:08.485Z,986.3
2022-12-22T09:50:08.495Z,986.3
2022-12-22T09:51:08.515Z,986.31
2022-12-22T09:52:08.527Z,986.27
2022-12-22T09:53:08.544Z,986.35
2022-12-22T09:54:08.562Z,986.29
2022-12-22T09:55:08.576Z,986.34
2022-12-22T09:56:08.588Z,986.38
2022-12-22T09:57:08.612Z,986.41
2022-12-22T09:58:11.503Z,986.47
2022-12-22T09:59:08.633Z,986.49
2022-12-22T10:00:08.648Z,986.51
2022-12-22T10:01:08.711Z,986.49
2022-12-22T10:02:08.751Z,986.52
2022-12-22T10:03:08.833Z,986.51
2022-12-22T10:04:08.710Z,986.57
2022-12-22T10:05:08.729Z,986.57
2022-12-22T10:06:08.738Z,986.55
2022-12-22T10:07:08.777Z,986.58
2022-12-22T10:08:08.769Z,986.62
2022-12-22T10:09:27.540Z,986.64
2022-12-22T10:10:08.809Z,986.61
2022-12-22T10:11:08.821Z,986.67
2022-12-22T10:12:08.831Z,986.66
2022-12-22T10:13:08.849Z,986.73
2022-12-22T10:14:08.860Z,986.72
2022-12-22T10:15:09.280Z,986.77
2022-12-22T10:16:08.892Z,986.79
2022-12-22T10:17:08.984Z,986.78
2022-12-22T10:18:08.923Z,986.79
2022-12-22T10:19:10.536Z,986.87
2022-12-22T10:20:08.979Z,986.85
2022-12-22T10:21:08.969Z,986.81
2022-12-22T10:22:08.983Z,986.81
2022-12-22T10:23:09.000Z,986.85
2022-12-22T10:24:09.019Z,986.86
2022-12-22T10:25:09.030Z,986.85
2022-12-22T10:27:09.061Z,986.89
2022-12-22T10:28:09.075Z,986.88
2022-12-22T10:29:09.104Z,986.86
2022-12-22T10:30:09.104Z,986.88
2022-12-22T10:31:09.123Z,986.88
2022-12-22T10:32:09.202Z,986.89
2022-12-22T10:33:09.150Z,986.9
2022-12-22T10:34:09.167Z,986.9
2022-12-22T10:35:09.210Z,986.87
2022-12-22T10:36:09.198Z,986.84
2022-12-22T10:37:09.212Z,986.89
2022-12-22T10:38:20.891Z,986.88
2022-12-22T10:39:09.242Z,986.91
2022-12-22T10:40:09.287Z,986.96
2022-12-22T10:41:09.271Z,986.98
2022-12-22T10:42:09.289Z,986.97
2022-12-22T10:43:09.304Z,987.01
2022-12-22T10:44:09.323Z,987
2022-12-22T10:45:09.332Z,987.01
2022-12-22T10:46:09.399Z,987
2022-12-22T10:47:13.674Z,987.04
2022-12-22T10:48:09.399Z,987.04
2022-12-22T10:49:09.394Z,987.04
2022-12-22T10:50:09.430Z,987.04
2022-12-22T10:51:09.452Z,987.1
2022-12-22T10:52:09.452Z,987.09
2022-12-22T10:53:09.456Z,987.13
2022-12-22T10:54:09.479Z,987.12
2022-12-22T10:55:09.487Z,987.13
2022-12-22T10:56:09.505Z,987.22
2022-12-22T10:57:09.515Z,987.27
2022-12-22T10:58:09.534Z,987.3
2022-12-22T10:59:09.552Z,987.31
2022-12-22T11:00:09.586Z,987.33
2022-12-22T11:01:09.601Z,987.38
2022-12-22T11:02:09.824Z,987.4
2022-12-22T11:03:09.676Z,987.48
2022-12-22T11:04:09.689Z,987.45
2022-12-22T11:05:09.639Z,987.46
2022-12-22T11:06:09.652Z,987.41
2022-12-22T11:07:09.693Z,987.45
2022-12-22T11:08:09.680Z,987.41
2022-12-22T11:09:31.664Z,987.46
2022-12-22T11:10:09.712Z,987.48
2022-12-22T11:11:09.733Z,987.51
2022-12-22T11:12:09.746Z,987.57
2022-12-22T11:13:09.767Z,987.48
2022-12-22T11:14:09.776Z,987.51
2022-12-22T11:15:09.993Z,987.57
2022-12-22T11:16:09.874Z,987.64
2022-12-22T11:17:09.841Z,987.62
2022-12-22T11:18:09.836Z,987.67
2022-12-22T11:19:09.853Z,987.65
2022-12-22T11:20:09.868Z,987.71
2022-12-22T11:21:09.883Z,987.7
2022-12-22T11:22:09.897Z,987.72
2022-12-22T11:23:09.947Z,987.69
2022-12-22T11:24:09.928Z,987.75
2022-12-22T11:25:09.951Z,987.77
2022-12-22T11:26:09.958Z,987.77
2022-12-22T11:27:09.990Z,987.79
2022-12-22T11:28:10.001Z,987.79
2022-12-22T11:29:10.002Z,987.83
2022-12-22T11:30:10.025Z,987.8
2022-12-22T11:31:10.076Z,987.81
2022-12-22T11:32:10.048Z,987.82
2022-12-22T11:33:10.067Z,987.85
2022-12-22T11:34:11.652Z,987.86
2022-12-22T11:35:10.102Z,987.89
2022-12-22T11:36:10.113Z,987.92
2022-12-22T11:37:10.145Z,987.91
2022-12-22T11:38:10.145Z,987.97
2022-12-22T11:39:10.193Z,987.96
2022-12-22T11:40:10.172Z,988
2022-12-22T11:41:10.206Z,988.06
2022-12-22T11:42:10.201Z,988.04
2022-12-22T11:43:10.218Z,988.09
2022-12-22T11:44:10.239Z,988.12
2022-12-22T11:45:10.253Z,988.21
2022-12-22T11:46:10.305Z,988.2
2022-12-22T11:47:10.284Z,988.22
2022-12-22T11:48:10.295Z,988.21
2022-12-22T11:49:10.331Z,988.2
2022-12-22T11:50:46.179Z,988.22
2022-12-22T11:51:29.161Z,988.22
2022-12-22T11:52:29.187Z,988.23
2022-12-22T11:53:29.182Z,988.27
2022-12-22T11:54:29.229Z,988.31
2022-12-22T11:55:29.308Z,988.27
2022-12-22T11:56:29.241Z,988.28
2022-12-22T11:57:29.257Z,988.33
2022-12-22T11:58:29.270Z,988.29
2022-12-22T11:59:29.275Z,988.3
2022-12-22T12:00:56.014Z,988.31
2022-12-22T12:01:31.920Z,988.31
2022-12-22T12:02:32.051Z,988.33
2022-12-22T12:03:31.933Z,988.37
2022-12-22T12:04:32.043Z,988.36
2022-12-22T12:05:31.892Z,988.33
2022-12-22T12:06:31.911Z,988.33
2022-12-22T12:07:31.923Z,988.33
2022-12-22T12:08:31.934Z,988.33
2022-12-22T12:09:31.979Z,988.3
2022-12-22T12:10:31.980Z,988.34
2022-12-22T12:11:31.986Z,988.34
2022-12-22T12:12:32.004Z,988.35
2022-12-22T12:13:36.993Z,988.38
2022-12-22T12:14:32.032Z,988.38
2022-12-22T12:15:32.272Z,988.39
2022-12-22T12:16:32.183Z,988.4
2022-12-22T12:17:32.089Z,988.38
2022-12-22T12:18:32.094Z,988.41
2022-12-22T12:19:32.108Z,988.4
2022-12-22T12:20:32.130Z,988.45
2022-12-22T12:21:32.152Z,988.5
2022-12-22T12:22:32.158Z,988.51
2022-12-22T12:23:32.165Z,988.54
2022-12-22T12:24:32.199Z,988.58
2022-12-22T12:25:32.243Z,988.58
2022-12-22T12:26:32.215Z,988.6
2022-12-22T12:27:32.230Z,988.58
2022-12-22T12:28:32.239Z,988.64
2022-12-22T12:29:32.264Z,988.64
2022-12-22T12:30:39.824Z,988.62
2022-12-22T12:31:32.308Z,988.64
2022-12-22T12:32:32.308Z,988.61
2022-12-22T12:33:32.329Z,988.64